Time;durP1;ratioP1;P1;durP2;ratioP2;P2;SDS_P1;SDS_P2;PMS_P1;PMS_P2;Temp;Humidity;BMP_temperature;BMP_pressure;BME280_temperature;BME280_humidity;BME280_pressure;Samples;Min_cycle;Max_cycle;Signal;HPM_P1;HPM_P2
2022/11/30 00:00:30;;;;;;;45.88;25.15;;;7.60;99.90;;;;;;5052055;28;20068;-67
2022/11/30 00:02:57;;;;;;;49.63;25.95;;;7.60;99.90;;;;;;5065884;28;20055;-67
2022/11/30 00:05:23;;;;;;;47.42;25.77;;;7.70;99.90;;;;;;5057417;28;20048;-67
2022/11/30 00:07:49;;;;;;;45.92;25.50;;;7.60;99.90;;;;;;5079031;28;20041;-67
2022/11/30 00:10:15;;;;;;;45.97;24.50;;;7.60;99.90;;;;;;5039852;28;20047;-67
2022/11/30 00:12:41;;;;;;;47.03;25.70;;;7.70;99.90;;;;;;5084284;28;20080;-67
2022/11/30 00:15:13;;;;;;;47.15;24.95;;;7.60;99.90;;;;;;5053029;28;20048;-67
2022/11/30 00:17:39;;;;;;;50.35;27.48;;;7.60;99.90;;;;;;5044606;28;20049;-67
2022/11/30 00:20:06;;;;;;;48.75;25.30;;;7.60;99.90;;;;;;5076310;28;20049;-67
2022/11/30 00:22:32;;;;;;;49.03;25.00;;;7.60;99.90;;;;;;5045201;28;20048;-67
2022/11/30 00:24:59;;;;;;;45.95;23.65;;;7.60;99.90;;;;;;5071589;28;20045;-67
2022/11/30 00:27:28;;;;;;;49.78;26.00;;;7.70;99.90;;;;;;5062727;28;20053;-67
2022/11/30 00:29:54;;;;;;;51.17;26.95;;;7.70;99.90;;;;;;5037345;28;20049;-67
2022/11/30 00:32:20;;;;;;;51.50;28.15;;;7.70;99.90;;;;;;5052516;28;20128;-67
2022/11/30 00:34:46;;;;;;;47.40;25.83;;;7.60;99.90;;;;;;5052596;28;20081;-67
2022/11/30 00:37:11;;;;;;;55.25;27.13;;;7.60;99.90;;;;;;5041623;28;20041;-67
2022/11/30 00:39:37;;;;;;;52.28;26.60;;;7.70;99.90;;;;;;5038306;28;20049;-67
2022/11/30 00:42:03;;;;;;;53.13;27.48;;;7.70;99.90;;;;;;5055867;28;20033;-67
2022/11/30 00:44:29;;;;;;;55.72;28.83;;;7.70;99.90;;;;;;5040474;28;20127;-67
2022/11/30 00:46:54;;;;;;;50.53;28.50;;;7.60;99.90;;;;;;5082684;28;20095;-67
2022/11/30 00:49:20;;;;;;;55.25;27.30;;;7.70;99.90;;;;;;5031935;28;20048;-67
2022/11/30 00:51:46;;;;;;;54.53;27.95;;;7.60;99.90;;;;;;5056930;28;20040;-67
2022/11/30 00:54:11;;;;;;;49.58;26.10;;;7.70;99.90;;;;;;5051567;28;20044;-67
2022/11/30 00:56:37;;;;;;;53.03;27.77;;;7.60;99.90;;;;;;5064532;28;20053;-67
2022/11/30 00:59:03;;;;;;;51.83;27.30;;;7.70;99.90;;;;;;5071717;28;20041;-67
2022/11/30 01:01:30;;;;;;;59.13;29.20;;;7.60;99.90;;;;;;5047647;28;20052;-67
2022/11/30 01:03:56;;;;;;;55.30;28.38;;;7.70;99.90;;;;;;5058446;28;20110;-67
2022/11/30 01:06:21;;;;;;;55.15;27.85;;;7.60;99.90;;;;;;5046973;28;20055;-67
2022/11/30 01:08:47;;;;;;;55.55;28.30;;;7.70;99.90;;;;;;5064392;28;20120;-67
2022/11/30 01:11:21;;;;;;;55.50;27.95;;;7.50;99.90;;;;;;5062516;28;20043;-67
2022/11/30 01:13:47;;;;;;;58.45;28.42;;;7.60;99.90;;;;;;5037629;28;20049;-67
2022/11/30 01:16:16;;;;;;;51.47;28.10;;;7.50;99.90;;;;;;5046017;28;20399;-67
2022/11/30 01:18:42;;;;;;;54.17;27.90;;;7.60;99.90;;;;;;5063310;28;20050;-67
2022/11/30 01:21:12;;;;;;;59.38;28.77;;;7.60;99.90;;;;;;5027895;28;20049;-67
2022/11/30 01:23:38;;;;;;;58.00;28.58;;;7.50;99.90;;;;;;5054568;28;20067;-67
2022/11/30 01:26:05;;;;;;;52.13;28.70;;;7.50;99.90;;;;;;5050001;28;20041;-67
2022/11/30 01:28:31;;;;;;;54.17;26.33;;;7.60;99.90;;;;;;5072616;28;20048;-67
2022/11/30 01:31:05;;;;;;;54.13;29.15;;;7.60;99.90;;;;;;5050892;28;20033;-67
2022/11/30 01:33:31;;;;;;;60.35;28.92;;;7.50;99.90;;;;;;5068800;28;20045;-67
2022/11/30 01:36:18;;;;;;;52.85;27.15;;;7.50;99.90;;;;;;5060006;28;20037;-67
2022/11/30 01:38:50;;;;;;;58.65;29.13;;;7.60;99.90;;;;;;5068605;28;20036;-67
2022/11/30 01:41:28;;;;;;;56.05;27.25;;;7.50;99.90;;;;;;5047781;28;20071;-67
2022/11/30 01:44:05;;;;;;;53.35;29.23;;;7.50;99.90;;;;;;5050237;28;20077;-67
2022/11/30 01:46:55;;;;;;;56.13;28.77;;;7.50;99.90;;;;;;5053170;28;20470;-67
2022/11/30 01:50:01;;;;;;;51.88;28.27;;;7.50;99.90;;;;;;5050114;28;20055;-67
2022/11/30 01:52:34;;;;;;;50.55;28.23;;;7.50;99.90;;;;;;4986345;28;20113;-67
2022/11/30 01:55:18;;;;;;;51.42;27.85;;;7.40;99.90;;;;;;5005675;28;20170;-67
2022/11/30 01:57:55;;;;;;;48.90;27.17;;;7.50;99.90;;;;;;4990867;28;20050;-67
2022/11/30 02:00:21;;;;;;;46.28;25.92;;;7.50;99.90;;;;;;4979644;28;20054;-67
2022/11/30 02:03:11;;;;;;;47.60;27.75;;;7.40;99.90;;;;;;5005743;28;20172;-67
2022/11/30 02:05:40;;;;;;;47.67;26.98;;;7.40;99.90;;;;;;5005952;28;20077;-67
2022/11/30 02:08:09;;;;;;;43.63;24.95;;;7.40;99.90;;;;;;4989140;28;20113;-67
2022/11/30 02:10:41;;;;;;;45.33;25.05;;;7.40;99.90;;;;;;4985563;28;20503;-67
2022/11/30 02:13:18;;;;;;;45.35;25.55;;;7.40;99.90;;;;;;4988737;28;20062;-67
2022/11/30 02:15:56;;;;;;;40.78;25.90;;;7.50;99.90;;;;;;5005376;28;20054;-67
2022/11/30 02:18:30;;;;;;;48.63;27.00;;;7.50;99.90;;;;;;5005790;28;20094;-67
2022/11/30 02:21:12;;;;;;;46.78;26.35;;;7.50;99.90;;;;;;5010748;28;20062;-67
2022/11/30 02:23:50;;;;;;;44.88;25.92;;;7.60;99.90;;;;;;5008254;28;20069;-67
2022/11/30 02:26:22;;;;;;;40.72;24.75;;;7.50;99.90;;;;;;5035248;28;20056;-67
2022/11/30 02:29:37;;;;;;;44.90;26.45;;;7.50;99.90;;;;;;5053443;28;20116;-67
2022/11/30 02:32:05;;;;;;;45.38;25.33;;;7.40;99.90;;;;;;5063431;28;20116;-67
2022/11/30 02:34:34;;;;;;;42.17;25.30;;;7.30;99.90;;;;;;5051896;28;20041;-67
2022/11/30 02:37:01;;;;;;;42.67;24.80;;;7.40;99.90;;;;;;5086153;28;20052;-67
2022/11/30 02:39:26;;;;;;;45.08;25.73;;;7.30;99.90;;;;;;5072091;28;20041;-67
2022/11/30 02:41:52;;;;;;;43.42;24.80;;;7.40;99.90;;;;;;5025610;28;20076;-67
2022/11/30 02:44:19;;;;;;;45.35;26.60;;;7.40;99.90;;;;;;5056304;28;20095;-67
2022/11/30 02:46:49;;;;;;;42.42;25.40;;;7.40;99.90;;;;;;5043145;28;20052;-67
2022/11/30 02:49:30;;;;;;;42.63;25.75;;;7.40;99.90;;;;;;5053411;28;20052;-67
2022/11/30 02:51:57;;;;;;;43.95;25.48;;;7.40;99.90;;;;;;5039726;28;20049;-67
2022/11/30 02:54:23;;;;;;;42.83;24.90;;;7.40;99.90;;;;;;5053653;28;20100;-67
2022/11/30 02:56:49;;;;;;;43.28;25.70;;;7.50;99.90;;;;;;5063631;28;20044;-67
2022/11/30 02:59:15;;;;;;;45.67;25.10;;;7.40;99.90;;;;;;5045201;28;20083;-67
2022/11/30 03:01:41;;;;;;;43.75;25.25;;;7.40;99.90;;;;;;5037706;28;20097;-67
2022/11/30 03:04:07;;;;;;;44.38;25.40;;;7.40;99.90;;;;;;5037317;28;20061;-67
2022/11/30 03:06:33;;;;;;;45.70;25.90;;;7.40;99.90;;;;;;5065846;28;20076;-67
2022/11/30 03:08:58;;;;;;;45.92;26.60;;;7.40;99.90;;;;;;5053952;28;20045;-67
2022/11/30 03:11:24;;;;;;;41.40;25.35;;;7.50;99.90;;;;;;5043412;28;20042;-67
2022/11/30 03:13:50;;;;;;;47.13;25.92;;;7.40;99.90;;;;;;5069028;28;20049;-67
2022/11/30 03:16:16;;;;;;;43.05;25.80;;;7.50;99.90;;;;;;5070068;28;20096;-67
2022/11/30 03:18:42;;;;;;;43.20;26.45;;;7.50;99.90;;;;;;5063072;28;20056;-67
2022/11/30 03:21:09;;;;;;;44.05;26.75;;;7.40;99.90;;;;;;5054249;28;20045;-67
2022/11/30 03:23:35;;;;;;;45.03;26.52;;;7.40;99.90;;;;;;5052889;28;20050;-67
2022/11/30 03:26:02;;;;;;;43.30;25.77;;;7.40;99.90;;;;;;5057532;28;20090;-67
2022/11/30 03:28:28;;;;;;;38.72;24.08;;;7.40;99.90;;;;;;5057076;28;20060;-67
2022/11/30 03:30:54;;;;;;;43.55;25.75;;;7.50;99.90;;;;;;5034346;28;20171;-67
2022/11/30 03:33:20;;;;;;;41.85;25.42;;;7.50;99.90;;;;;;5060946;28;20048;-67
2022/11/30 03:35:46;;;;;;;41.40;24.15;;;7.40;99.90;;;;;;5045893;28;20037;-67
2022/11/30 03:38:11;;;;;;;41.28;23.63;;;7.40;99.90;;;;;;5059158;28;20500;-67
2022/11/30 03:40:37;;;;;;;37.72;21.45;;;7.50;99.90;;;;;;5073402;28;20041;-67
2022/11/30 03:43:03;;;;;;;43.25;23.85;;;7.40;99.90;;;;;;5049401;28;20041;-67
2022/11/30 03:45:29;;;;;;;42.25;24.77;;;7.50;99.90;;;;;;5093246;28;20041;-67
2022/11/30 03:47:54;;;;;;;45.25;25.40;;;7.60;99.90;;;;;;5059696;28;20048;-67
2022/11/30 03:50:20;;;;;;;45.08;24.80;;;7.50;99.90;;;;;;5057070;28;20063;-67
2022/11/30 03:52:46;;;;;;;45.75;25.98;;;7.50;99.90;;;;;;5066446;28;20070;-67
2022/11/30 03:55:12;;;;;;;47.13;26.80;;;7.50;99.90;;;;;;5033510;28;20462;-67
2022/11/30 03:57:37;;;;;;;47.35;25.98;;;7.50;99.90;;;;;;5068436;28;20129;-67
2022/11/30 04:00:05;;;;;;;47.30;25.45;;;7.50;99.90;;;;;;5040872;28;20086;-67
2022/11/30 04:02:31;;;;;;;41.92;23.45;;;7.40;99.90;;;;;;5039948;28;20041;-67
2022/11/30 04:04:57;;;;;;;46.95;24.95;;;7.50;99.90;;;;;;5051226;28;20056;-67
2022/11/30 04:07:23;;;;;;;43.40;23.23;;;7.50;99.90;;;;;;5041689;28;20064;-67
2022/11/30 04:09:48;;;;;;;47.65;24.85;;;7.50;99.90;;;;;;5042698;28;20049;-67
2022/11/30 04:12:14;;;;;;;44.10;24.98;;;7.50;99.90;;;;;;5076244;28;20130;-67
2022/11/30 04:14:40;;;;;;;49.25;26.65;;;7.50;99.90;;;;;;5037786;28;20086;-67
2022/11/30 04:17:06;;;;;;;49.40;26.40;;;7.50;99.90;;;;;;5056903;28;20044;-67
2022/11/30 04:19:31;;;;;;;47.85;25.02;;;7.50;99.90;;;;;;5051488;28;20052;-67
2022/11/30 04:21:57;;;;;;;42.85;26.08;;;7.50;99.90;;;;;;5068528;28;20044;-67
2022/11/30 04:24:23;;;;;;;47.40;25.27;;;7.50;99.90;;;;;;5067515;28;20079;-67
2022/11/30 04:26:48;;;;;;;44.85;25.10;;;7.50;99.90;;;;;;5040708;28;20044;-67
2022/11/30 04:29:14;;;;;;;50.50;26.15;;;7.50;99.90;;;;;;5034380;28;20060;-67
2022/11/30 04:31:40;;;;;;;43.58;23.52;;;7.50;99.90;;;;;;5041847;28;20087;-67
2022/11/30 04:34:05;;;;;;;44.45;24.67;;;7.50;99.90;;;;;;5065900;28;20053;-67
2022/11/30 04:36:31;;;;;;;50.67;27.13;;;7.40;99.90;;;;;;5047373;28;20057;-67
2022/11/30 04:38:57;;;;;;;46.90;25.95;;;7.40;99.90;;;;;;5050807;28;20053;-67
2022/11/30 04:41:22;;;;;;;53.22;26.52;;;7.40;99.90;;;;;;5068582;28;20040;-67
2022/11/30 04:43:48;;;;;;;50.58;26.63;;;7.40;99.90;;;;;;5046458;28;20076;-67
2022/11/30 04:46:14;;;;;;;51.80;27.88;;;7.40;99.90;;;;;;5066887;28;20051;-67
2022/11/30 04:48:39;;;;;;;43.83;23.83;;;7.40;99.90;;;;;;5085012;28;20119;-67
2022/11/30 04:51:07;;;;;;;46.50;25.35;;;7.40;99.90;;;;;;5028745;28;20681;-67
2022/11/30 04:53:34;;;;;;;51.03;27.67;;;7.40;99.90;;;;;;5052428;28;20059;-67
2022/11/30 04:56:08;;;;;;;45.38;25.25;;;7.40;99.90;;;;;;5029293;28;20116;-67
2022/11/30 04:58:34;;;;;;;52.58;25.85;;;7.40;99.90;;;;;;5086821;28;20044;-68
2022/11/30 05:00:59;;;;;;;52.95;27.05;;;7.40;99.90;;;;;;5072123;28;20091;-68
2022/11/30 05:03:25;;;;;;;48.25;25.05;;;7.40;99.90;;;;;;5052397;28;20053;-67
2022/11/30 05:05:51;;;;;;;47.42;25.55;;;7.40;99.90;;;;;;5062569;28;20083;-67
2022/11/30 05:08:16;;;;;;;52.92;27.77;;;7.30;99.90;;;;;;5059309;28;20056;-67
2022/11/30 05:10:42;;;;;;;51.60;26.55;;;7.30;99.90;;;;;;5048219;28;20099;-67
2022/11/30 05:13:08;;;;;;;53.00;26.63;;;7.40;99.90;;;;;;5027501;28;20052;-67
2022/11/30 05:15:33;;;;;;;54.92;28.08;;;7.40;99.90;;;;;;5077286;28;20052;-67
2022/11/30 05:18:00;;;;;;;48.05;25.80;;;7.40;99.90;;;;;;5044778;28;20041;-68
2022/11/30 05:20:27;;;;;;;45.83;26.27;;;7.30;99.90;;;;;;5042019;28;20105;-67
2022/11/30 05:22:53;;;;;;;44.38;23.73;;;7.40;99.90;;;;;;5035585;28;20524;-67
2022/11/30 05:25:19;;;;;;;45.95;25.38;;;7.30;99.90;;;;;;5029506;28;20040;-67
2022/11/30 05:27:44;;;;;;;44.80;25.98;;;7.40;99.90;;;;;;5048505;28;20045;-67
2022/11/30 05:30:11;;;;;;;49.53;26.35;;;7.30;99.90;;;;;;5050247;28;20072;-67
2022/11/30 05:32:37;;;;;;;44.72;23.95;;;7.30;99.90;;;;;;5048896;28;20071;-67
2022/11/30 05:35:03;;;;;;;43.63;24.77;;;7.40;99.90;;;;;;5049117;28;20044;-67
2022/11/30 05:37:28;;;;;;;43.20;26.48;;;7.30;99.90;;;;;;5064681;28;20067;-67
2022/11/30 05:39:54;;;;;;;44.97;26.50;;;7.30;99.90;;;;;;5047753;28;20108;-67
2022/11/30 05:42:20;;;;;;;43.25;24.33;;;7.30;99.90;;;;;;5047360;28;20037;-67
2022/11/30 05:44:46;;;;;;;40.50;23.40;;;7.30;99.90;;;;;;5047313;28;20782;-67
2022/11/30 05:47:12;;;;;;;39.75;23.33;;;7.30;99.90;;;;;;5047047;28;20049;-67
2022/11/30 05:49:38;;;;;;;39.55;23.23;;;7.30;99.90;;;;;;5047948;28;20048;-67
2022/11/30 05:52:04;;;;;;;40.92;23.52;;;7.40;99.90;;;;;;5047985;28;20048;-67
2022/11/30 05:54:29;;;;;;;37.58;22.05;;;7.40;99.90;;;;;;5032981;28;20053;-67
2022/11/30 05:56:55;;;;;;;41.10;22.40;;;7.40;99.90;;;;;;5050811;28;20108;-68
2022/11/30 05:59:21;;;;;;;43.13;23.38;;;7.30;99.90;;;;;;5050043;28;20052;-67
2022/11/30 06:01:47;;;;;;;41.30;24.17;;;7.30;99.90;;;;;;5068362;28;20111;-67
2022/11/30 06:04:13;;;;;;;39.58;22.08;;;7.40;99.90;;;;;;5049992;28;20053;-68
2022/11/30 06:06:39;;;;;;;36.35;21.95;;;7.40;99.90;;;;;;5067789;28;20094;-67
2022/11/30 06:09:04;;;;;;;38.03;23.00;;;7.30;99.90;;;;;;5055801;28;20049;-67
2022/11/30 06:11:30;;;;;;;35.50;21.95;;;7.30;99.90;;;;;;5042689;28;20043;-68
2022/11/30 06:13:56;;;;;;;34.92;21.80;;;7.30;99.90;;;;;;5045848;28;20079;-67
2022/11/30 06:16:21;;;;;;;40.03;22.95;;;7.20;99.90;;;;;;5043256;28;20100;-67
2022/11/30 06:18:47;;;;;;;38.60;23.88;;;7.20;99.90;;;;;;5051676;28;20124;-67
2022/11/30 06:21:13;;;;;;;33.55;21.20;;;7.30;99.90;;;;;;5060888;28;20049;-67
2022/11/30 06:23:38;;;;;;;35.33;20.83;;;7.20;99.90;;;;;;5065362;28;20069;-69
2022/11/30 06:26:06;;;;;;;34.35;20.63;;;7.20;99.90;;;;;;5035142;28;20056;-73
2022/11/30 06:28:32;;;;;;;35.70;20.55;;;7.20;99.90;;;;;;5007737;28;20079;-69
2022/11/30 06:30:59;;;;;;;32.22;19.85;;;7.20;99.90;;;;;;5064899;28;20051;-69
2022/11/30 06:33:25;;;;;;;34.00;20.90;;;7.30;99.90;;;;;;5050788;28;20048;-69
2022/11/30 06:35:51;;;;;;;29.77;17.55;;;7.20;99.90;;;;;;5048188;28;20142;-68
2022/11/30 06:38:17;;;;;;;32.67;20.08;;;7.20;99.90;;;;;;5064065;28;20584;-69
2022/11/30 06:40:43;;;;;;;31.17;18.80;;;7.30;99.90;;;;;;5066513;28;20044;-69
2022/11/30 06:43:09;;;;;;;28.05;17.83;;;7.30;99.90;;;;;;5064950;28;20045;-69
2022/11/30 06:45:35;;;;;;;27.90;17.63;;;7.30;99.90;;;;;;5047489;28;20049;-69
2022/11/30 06:48:01;;;;;;;30.95;20.23;;;7.20;99.90;;;;;;5048771;28;20037;-69
2022/11/30 06:50:26;;;;;;;28.25;18.10;;;7.30;99.90;;;;;;5067679;28;20056;-68
2022/11/30 06:52:52;;;;;;;28.80;19.52;;;7.20;99.90;;;;;;5047540;28;20068;-69
2022/11/30 06:55:18;;;;;;;31.13;19.25;;;7.20;99.90;;;;;;5049203;28;20056;-69
2022/11/30 06:57:44;;;;;;;31.02;19.42;;;7.10;99.90;;;;;;5065557;28;20052;-68
2022/11/30 07:00:11;;;;;;;26.48;16.90;;;7.10;99.90;;;;;;5047765;28;20040;-68
2022/11/30 07:02:37;;;;;;;23.77;16.67;;;7.10;99.90;;;;;;5048952;28;20086;-68
2022/11/30 07:05:03;;;;;;;28.77;18.73;;;7.10;99.90;;;;;;5045424;28;20080;-68
2022/11/30 07:07:29;;;;;;;24.63;16.85;;;7.10;99.90;;;;;;5065012;28;20045;-67
2022/11/30 07:09:56;;;;;;;24.02;16.85;;;7.10;99.90;;;;;;5045602;28;20115;-67
2022/11/30 07:12:22;;;;;;;25.58;17.10;;;7.10;99.90;;;;;;5063515;28;20037;-64
2022/11/30 07:14:51;;;;;;;23.40;15.73;;;7.20;99.90;;;;;;5044600;28;20142;-65
2022/11/30 07:17:17;;;;;;;24.60;17.52;;;7.20;99.90;;;;;;5051956;28;20049;-65
2022/11/30 07:19:43;;;;;;;25.65;16.90;;;7.10;99.90;;;;;;5053036;28;20060;-65
2022/11/30 07:22:09;;;;;;;22.50;15.88;;;7.10;99.90;;;;;;5041390;28;20041;-65
2022/11/30 07:27:19;;;;;;;21.67;15.50;;;7.10;99.90;;;;;;5070639;28;20053;-64
2022/11/30 07:29:47;;;;;;;24.48;16.92;;;7.10;99.90;;;;;;5033833;28;20148;-64
2022/11/30 07:32:13;;;;;;;26.92;17.98;;;7.20;99.90;;;;;;5072587;28;20044;-65
2022/11/30 07:34:39;;;;;;;28.40;18.40;;;7.10;99.90;;;;;;5057120;28;20052;-64
2022/11/30 07:37:04;;;;;;;28.88;19.77;;;7.10;99.90;;;;;;5037594;28;20127;-64
2022/11/30 07:39:30;;;;;;;28.42;18.75;;;7.10;99.90;;;;;;5055771;28;20056;-64
2022/11/30 07:41:56;;;;;;;29.13;18.83;;;7.10;99.90;;;;;;5051276;28;20045;-64
2022/11/30 07:44:21;;;;;;;31.05;19.83;;;7.20;99.90;;;;;;5041686;28;20040;-65
2022/11/30 07:46:47;;;;;;;30.40;19.63;;;7.10;99.90;;;;;;5053244;28;20261;-64
2022/11/30 07:49:13;;;;;;;28.80;19.58;;;7.10;99.90;;;;;;5038699;28;20048;-64
2022/11/30 07:51:39;;;;;;;27.33;19.35;;;7.20;99.90;;;;;;5063848;28;20053;-64
2022/11/30 07:54:05;;;;;;;27.90;19.17;;;7.10;99.90;;;;;;5041916;28;20078;-64
2022/11/30 07:56:30;;;;;;;30.65;19.75;;;7.20;99.90;;;;;;5054882;28;20048;-64
2022/11/30 07:58:59;;;;;;;31.55;19.13;;;7.10;99.90;;;;;;5033413;28;20547;-64
2022/11/30 08:01:27;;;;;;;27.05;18.25;;;7.10;99.90;;;;;;5071781;28;20045;-64
2022/11/30 08:03:53;;;;;;;28.90;19.33;;;7.10;99.90;;;;;;5049358;28;20067;-66
2022/11/30 08:06:26;;;;;;;30.17;20.08;;;7.10;99.90;;;;;;5056910;28;20051;-65
2022/11/30 08:08:55;;;;;;;31.25;18.80;;;7.10;99.90;;;;;;5051930;28;20218;-64
2022/11/30 08:11:24;;;;;;;30.63;20.17;;;7.10;99.90;;;;;;5074096;28;20132;-64
2022/11/30 08:13:50;;;;;;;27.95;18.45;;;7.10;99.90;;;;;;5047513;28;20113;-65
2022/11/30 08:16:21;;;;;;;27.60;18.27;;;7.10;99.90;;;;;;5073460;28;20441;-65
2022/11/30 08:18:47;;;;;;;29.10;20.02;;;7.10;99.90;;;;;;5030236;28;20560;-65
2022/11/30 08:21:15;;;;;;;28.02;18.95;;;7.10;99.90;;;;;;5059480;28;20055;-65
2022/11/30 08:23:44;;;;;;;27.92;17.83;;;7.10;99.90;;;;;;5039026;28;20045;-64
2022/11/30 08:26:12;;;;;;;27.42;19.02;;;7.10;99.90;;;;;;5050778;28;20060;-65
2022/11/30 08:28:39;;;;;;;27.95;18.40;;;7.10;99.90;;;;;;5058952;28;20349;-65
2022/11/30 08:31:09;;;;;;;24.00;16.55;;;7.10;99.90;;;;;;5056243;28;20048;-65
2022/11/30 08:33:36;;;;;;;25.90;18.40;;;7.10;99.90;;;;;;5087690;28;20041;-65
2022/11/30 08:36:06;;;;;;;24.30;17.05;;;7.20;99.90;;;;;;5060227;28;20332;-65
2022/11/30 08:38:31;;;;;;;26.65;18.15;;;7.10;99.90;;;;;;5052887;28;20135;-65
2022/11/30 08:40:57;;;;;;;24.23;16.42;;;7.10;99.90;;;;;;5080325;28;20522;-65
2022/11/30 08:43:23;;;;;;;23.92;16.98;;;7.20;99.90;;;;;;5055063;28;20040;-65
2022/11/30 08:45:49;;;;;;;22.98;15.77;;;7.20;99.90;;;;;;5045188;28;20554;-65
2022/11/30 08:48:14;;;;;;;20.92;15.57;;;7.20;99.90;;;;;;5058959;28;20064;-65
2022/11/30 08:50:40;;;;;;;21.13;15.93;;;7.20;99.90;;;;;;5054855;28;20093;-65
2022/11/30 08:53:05;;;;;;;21.08;15.82;;;7.20;99.90;;;;;;5069363;28;20037;-65
2022/11/30 08:55:31;;;;;;;21.55;15.48;;;7.20;99.90;;;;;;5033350;28;20061;-65
2022/11/30 08:57:57;;;;;;;20.45;14.93;;;7.20;99.90;;;;;;5035296;28;21260;-64
2022/11/30 09:00:23;;;;;;;21.25;15.80;;;7.20;99.90;;;;;;5022556;28;20052;-64
2022/11/30 09:02:49;;;;;;;18.90;15.15;;;7.20;99.90;;;;;;5039862;28;20052;-64
2022/11/30 09:05:14;;;;;;;19.90;14.60;;;7.20;99.90;;;;;;5042433;28;20074;-66
2022/11/30 09:07:40;;;;;;;19.75;14.80;;;7.20;99.90;;;;;;5052021;28;20057;-69
2022/11/30 09:10:06;;;;;;;18.65;13.95;;;7.20;99.90;;;;;;5044928;28;20044;-68
2022/11/30 09:12:37;;;;;;;19.70;14.80;;;7.20;99.90;;;;;;5051010;28;20104;-68
2022/11/30 09:15:04;;;;;;;20.55;14.82;;;7.20;99.90;;;;;;5034317;28;20044;-67
2022/11/30 09:17:29;;;;;;;21.35;16.35;;;7.20;99.90;;;;;;5048957;28;20136;-67
2022/11/30 09:19:55;;;;;;;22.02;16.00;;;7.20;99.90;;;;;;5057631;28;20477;-67
2022/11/30 09:22:21;;;;;;;22.17;16.00;;;7.20;99.90;;;;;;5051486;28;20049;-68
2022/11/30 09:24:46;;;;;;;20.15;15.95;;;7.20;99.90;;;;;;5055503;28;20079;-67
2022/11/30 09:27:12;;;;;;;21.05;15.85;;;7.20;99.90;;;;;;5051797;28;20041;-66
2022/11/30 09:29:38;;;;;;;21.63;16.20;;;7.20;99.90;;;;;;5039040;28;21024;-67
2022/11/30 09:32:04;;;;;;;20.40;14.80;;;7.20;99.90;;;;;;5046568;28;20043;-68
2022/11/30 09:34:29;;;;;;;23.10;16.63;;;7.20;99.90;;;;;;5038368;28;20099;-69
2022/11/30 09:36:55;;;;;;;22.20;16.63;;;7.20;99.90;;;;;;5053405;28;20064;-69
2022/11/30 09:39:21;;;;;;;23.75;16.65;;;7.20;99.90;;;;;;5035143;28;20049;-68
2022/11/30 09:41:46;;;;;;;22.42;16.60;;;7.20;99.90;;;;;;5039169;28;20053;-67
2022/11/30 09:44:35;;;;;;;25.42;17.48;;;7.20;99.90;;;;;;5051225;28;20108;-69
2022/11/30 09:47:27;;;;;;;27.83;18.17;;;7.20;99.90;;;;;;5053824;28;20049;-68
2022/11/30 09:49:54;;;;;;;26.58;17.08;;;7.20;99.90;;;;;;5032349;28;20049;-67
2022/11/30 09:52:35;;;;;;;26.73;18.00;;;7.20;99.90;;;;;;5051279;28;20045;-66
2022/11/30 09:55:07;;;;;;;24.90;17.80;;;7.30;99.90;;;;;;5058125;28;20049;-67
2022/11/30 09:57:39;;;;;;;31.42;19.45;;;7.30;99.90;;;;;;5065810;28;20049;-66
2022/11/30 10:00:11;;;;;;;24.45;16.67;;;7.30;99.90;;;;;;5055275;28;20137;-67
2022/11/30 10:02:37;;;;;;;27.45;17.90;;;7.30;99.90;;;;;;5040881;28;20053;-64
2022/11/30 10:05:15;;;;;;;26.60;17.25;;;7.30;99.90;;;;;;5033773;28;20048;-64
2022/11/30 10:08:09;;;;;;;24.60;16.80;;;7.30;99.90;;;;;;5028024;28;20057;-66
2022/11/30 10:10:50;;;;;;;25.63;17.13;;;7.40;99.90;;;;;;5034132;28;20091;-66
2022/11/30 10:13:44;;;;;;;23.25;16.42;;;7.40;99.90;;;;;;5044501;28;20045;-66
2022/11/30 10:16:30;;;;;;;24.50;17.33;;;7.50;99.90;;;;;;4969398;28;20341;-66
2022/11/30 10:19:33;;;;;;;23.80;17.40;;;7.50;99.90;;;;;;4996218;28;20109;-66
2022/11/30 10:22:25;;;;;;;25.67;17.05;;;7.50;99.90;;;;;;4977672;28;20080;-65
2022/11/30 10:25:20;;;;;;;26.30;18.05;;;7.60;99.90;;;;;;4977657;28;20390;-65
2022/11/30 10:27:58;;;;;;;25.20;18.48;;;7.70;99.90;;;;;;4985082;28;20070;-66
2022/11/30 10:30:30;;;;;;;24.63;17.55;;;7.70;99.90;;;;;;4960137;28;20118;-65
2022/11/30 10:33:04;;;;;;;26.05;19.33;;;7.70;99.90;;;;;;4997010;28;20145;-66
2022/11/30 10:35:44;;;;;;;26.33;18.65;;;7.70;99.90;;;;;;4990025;28;20065;-64
2022/11/30 10:38:27;;;;;;;26.85;19.05;;;7.60;99.90;;;;;;4994240;28;20518;-64
2022/11/30 10:41:02;;;;;;;31.38;20.58;;;7.60;99.90;;;;;;4971877;28;20388;-64
2022/11/30 10:43:46;;;;;;;28.08;19.95;;;7.60;99.90;;;;;;4983765;28;20137;-67
2022/11/30 10:46:24;;;;;;;31.80;21.13;;;7.60;99.90;;;;;;4983742;28;20055;-67
2022/11/30 10:49:05;;;;;;;33.83;22.13;;;7.60;99.90;;;;;;4982613;28;20050;-67
2022/11/30 10:51:35;;;;;;;28.75;20.13;;;7.60;99.90;;;;;;4970023;28;20092;-65
2022/11/30 10:54:10;;;;;;;30.15;20.17;;;7.60;99.90;;;;;;5075031;28;20608;-65
2022/11/30 10:56:35;;;;;;;29.38;18.83;;;7.60;99.90;;;;;;5047908;28;20710;-65
2022/11/30 10:59:09;;;;;;;30.25;19.70;;;7.70;99.90;;;;;;5044958;28;20040;-65
2022/11/30 11:01:36;;;;;;;31.15;19.83;;;7.70;99.90;;;;;;5064689;28;20626;-65
2022/11/30 11:04:07;;;;;;;28.45;19.75;;;7.70;99.90;;;;;;5047942;28;20103;-66
2022/11/30 11:06:34;;;;;;;31.10;20.17;;;7.70;99.90;;;;;;5054794;28;20082;-66
2022/11/30 11:09:29;;;;;;;31.58;20.33;;;7.80;99.90;;;;;;5055982;28;20060;-68
2022/11/30 11:11:57;;;;;;;30.35;19.33;;;7.70;99.90;;;;;;5067218;28;20047;-66
2022/11/30 11:14:25;;;;;;;28.38;18.58;;;7.70;99.90;;;;;;5056987;28;20045;-68
2022/11/30 11:17:03;;;;;;;29.10;19.77;;;7.80;99.90;;;;;;5062604;28;20105;-68
2022/11/30 11:19:39;;;;;;;36.10;22.27;;;7.70;99.90;;;;;;5053491;28;20516;-67
2022/11/30 11:22:17;;;;;;;31.38;21.38;;;7.70;99.90;;;;;;5041582;28;20051;-67
2022/11/30 11:24:44;;;;;;;37.92;22.45;;;7.70;99.90;;;;;;5064818;28;20075;-67
2022/11/30 11:27:28;;;;;;;36.03;22.17;;;7.70;99.90;;;;;;5049888;28;20063;-70
2022/11/30 11:30:07;;;;;;;35.25;20.77;;;7.70;99.90;;;;;;5055847;28;20270;-71
2022/11/30 11:32:33;;;;;;;39.78;24.17;;;7.70;99.90;;;;;;5065928;28;20061;-70
2022/11/30 11:34:59;;;;;;;41.47;23.95;;;7.90;99.90;;;;;;5048313;28;20055;-70
2022/11/30 11:37:27;;;;;;;39.22;24.00;;;7.80;99.90;;;;;;5045375;28;20044;-71
2022/11/30 11:40:16;;;;;;;38.03;24.10;;;7.70;99.90;;;;;;5058353;28;20072;-69
2022/11/30 11:42:47;;;;;;;42.45;24.50;;;7.70;99.90;;;;;;5007305;28;20317;-70
2022/11/30 11:45:25;;;;;;;38.50;22.95;;;7.60;99.90;;;;;;5063200;28;20542;-70
2022/11/30 11:48:03;;;;;;;41.30;24.52;;;7.60;99.90;;;;;;5049982;28;20047;-69
2022/11/30 11:50:32;;;;;;;43.30;24.80;;;7.60;99.90;;;;;;5044109;28;20056;-69
2022/11/30 11:53:14;;;;;;;46.63;24.70;;;7.50;99.90;;;;;;5067780;28;20112;-69
2022/11/30 11:55:44;;;;;;;43.05;24.75;;;7.60;99.90;;;;;;5039199;28;20590;-68
2022/11/30 11:58:17;;;;;;;41.40;25.40;;;7.60;99.90;;;;;;5072788;28;20432;-68
2022/11/30 12:00:44;;;;;;;46.00;26.92;;;7.60;99.90;;;;;;5038876;28;20051;-69
2022/11/30 12:03:37;;;;;;;50.22;28.08;;;7.60;99.90;;;;;;5033180;28;20041;-68
2022/11/30 12:06:09;;;;;;;45.38;27.15;;;7.50;99.90;;;;;;5025817;28;20052;-67
2022/11/30 12:08:45;;;;;;;48.90;27.42;;;7.60;99.90;;;;;;5058598;28;20055;-68
2022/11/30 12:11:21;;;;;;;49.90;26.90;;;7.50;99.90;;;;;;5039639;28;20056;-69
2022/11/30 12:13:47;;;;;;;49.38;26.27;;;7.60;99.90;;;;;;5049198;28;20048;-69
2022/11/30 12:16:38;;;;;;;50.65;28.33;;;7.60;99.90;;;;;;5039660;28;20106;-69
2022/11/30 12:19:13;;;;;;;45.53;25.25;;;7.70;99.90;;;;;;5044386;28;20106;-69
2022/11/30 12:21:53;;;;;;;52.28;28.65;;;7.70;99.90;;;;;;5049246;28;20052;-70
2022/11/30 12:24:31;;;;;;;;;;;7.60;99.90;;;;;;5045191;28;20099;-70
2022/11/30 12:27:35;;;;;;;62.20;31.80;;;7.60;99.90;;;;;;5075665;28;20026;-69
2022/11/30 12:30:14;;;;;;;58.88;30.60;;;7.70;99.90;;;;;;5035136;28;20243;-70
2022/11/30 12:33:01;;;;;;;60.33;31.40;;;7.60;99.90;;;;;;5021286;28;20061;-70
2022/11/30 12:35:45;;;;;;;64.82;30.10;;;7.60;99.90;;;;;;5042555;28;20058;-70
2022/11/30 12:38:21;;;;;;;66.63;35.05;;;7.60;99.90;;;;;;5056015;28;20044;-71
2022/11/30 12:41:06;;;;;;;70.10;33.25;;;7.70;99.90;;;;;;5039512;28;20061;-70
2022/11/30 12:43:35;;;;;;;61.30;32.85;;;7.60;99.90;;;;;;5039339;28;20052;-70
2022/11/30 12:46:17;;;;;;;55.58;29.45;;;7.60;99.90;;;;;;5053351;28;20056;-70
2022/11/30 12:49:12;;;;;;;61.53;30.55;;;7.70;99.90;;;;;;5084013;28;20040;-70
2022/11/30 12:52:01;;;;;;;56.50;30.77;;;7.60;99.90;;;;;;5059906;28;20120;-70
2022/11/30 12:54:49;;;;;;;52.92;28.90;;;7.60;99.90;;;;;;5043865;28;20159;-70